createdAt,value
2022-10-30T00:01:58.861Z,16.08
2022-10-30T00:07:02.875Z,16.03
2022-10-30T00:12:06.979Z,16.01
2022-10-30T00:17:11.165Z,16.02
2022-10-30T00:22:15.358Z,15.95
2022-10-30T00:27:19.518Z,15.85
2022-10-30T00:32:21.790Z,15.74
2022-10-30T00:37:25.921Z,15.62
2022-10-30T00:42:30.046Z,15.59
2022-10-30T00:47:34.243Z,15.49
2022-10-30T00:52:38.413Z,15.50
2022-10-30T00:57:42.536Z,15.53
2022-10-30T01:02:46.813Z,15.42
2022-10-30T01:07:50.865Z,15.31
2022-10-30T01:12:55.050Z,15.18
2022-10-30T01:17:59.589Z,15.07
2022-10-30T01:23:03.340Z,14.97
2022-10-30T01:28:07.530Z,14.76
2022-10-30T01:33:11.671Z,14.63
2022-10-30T01:38:15.823Z,14.58
2022-10-30T01:43:20.011Z,14.54
2022-10-30T01:48:24.151Z,14.48
2022-10-30T01:53:28.868Z,14.39
2022-10-30T01:58:32.479Z,14.41
2022-10-30T02:03:36.615Z,14.37
2022-10-30T02:08:40.796Z,14.31
2022-10-30T02:13:44.979Z,14.28
2022-10-30T02:18:49.113Z,14.22
2022-10-30T02:23:53.482Z,14.15
2022-10-30T02:28:57.415Z,14.15
2022-10-30T02:34:01.607Z,14.18
2022-10-30T02:39:05.734Z,14.09
2022-10-30T02:44:09.909Z,14.02
2022-10-30T02:49:14.064Z,14.16
2022-10-30T02:54:18.259Z,14.24
2022-10-30T02:59:22.398Z,14.22
2022-10-30T03:04:26.571Z,14.23
2022-10-30T03:09:30.713Z,14.09
2022-10-30T03:14:34.858Z,13.92
2022-10-30T03:19:39.000Z,13.79
2022-10-30T03:24:43.185Z,13.62
2022-10-30T03:29:47.373Z,13.58
2022-10-30T03:34:51.522Z,13.59
2022-10-30T03:39:55.686Z,13.42
2022-10-30T03:44:59.804Z,13.37
2022-10-30T03:50:04.036Z,13.34
2022-10-30T03:55:08.154Z,13.24
2022-10-30T04:00:12.296Z,13.29
2022-10-30T04:05:16.469Z,13.14
2022-10-30T04:10:23.754Z,12.97
2022-10-30T04:15:24.775Z,12.83
2022-10-30T04:20:28.949Z,12.78
2022-10-30T04:25:33.132Z,12.71
2022-10-30T04:30:37.308Z,12.57
2022-10-30T04:35:41.478Z,12.48
2022-10-30T04:40:45.579Z,12.48
2022-10-30T04:45:49.750Z,12.38
2022-10-30T04:50:53.936Z,12.27
2022-10-30T04:55:58.103Z,12.25
2022-10-30T05:01:03.388Z,12.16
2022-10-30T05:06:06.402Z,12.08
2022-10-30T05:11:10.589Z,12.01
2022-10-30T05:16:14.700Z,12.04
2022-10-30T05:21:18.877Z,12.03
2022-10-30T05:26:23.107Z,12.05
2022-10-30T05:31:27.213Z,12.20
2022-10-30T05:36:31.348Z,12.14
2022-10-30T05:41:35.541Z,12.15
2022-10-30T05:46:39.697Z,12.22
2022-10-30T05:51:43.846Z,12.10
2022-10-30T05:56:47.994Z,11.93
2022-10-30T06:01:50.286Z,11.79
2022-10-30T06:06:54.463Z,11.66
2022-10-30T06:11:58.607Z,11.56
2022-10-30T06:22:06.931Z,11.57
2022-10-30T06:27:11.092Z,11.60
2022-10-30T06:32:13.335Z,11.61
2022-10-30T06:37:17.602Z,11.59
2022-10-30T06:42:21.664Z,11.50
2022-10-30T06:47:25.801Z,11.46
2022-10-30T06:52:29.978Z,11.43
2022-10-30T06:57:34.168Z,11.42
2022-10-30T07:02:38.306Z,11.46
2022-10-30T07:07:42.455Z,11.51
2022-10-30T07:12:46.647Z,11.53
2022-10-30T07:17:50.805Z,11.57
2022-10-30T07:22:54.967Z,11.69
2022-10-30T07:27:59.304Z,11.89
2022-10-30T07:33:03.406Z,12.07
2022-10-30T07:38:07.470Z,12.12
2022-10-30T07:43:11.604Z,12.15
2022-10-30T07:48:15.751Z,12.21
2022-10-30T07:53:19.899Z,12.27
2022-10-30T07:58:24.090Z,12.35
2022-10-30T08:03:28.257Z,12.37
2022-10-30T08:08:32.372Z,12.42
2022-10-30T08:13:36.531Z,12.59
2022-10-30T08:18:40.763Z,12.70
2022-10-30T08:23:44.891Z,12.88
2022-10-30T08:28:49.042Z,13.03
2022-10-30T08:33:53.232Z,13.14
2022-10-30T08:38:57.477Z,13.34
2022-10-30T08:44:01.515Z,13.64
2022-10-30T08:49:05.680Z,13.78
2022-10-30T08:54:09.821Z,14.18
2022-10-30T08:59:17.195Z,14.55
2022-10-30T09:04:18.189Z,14.96
2022-10-30T09:09:22.328Z,15.21
2022-10-30T09:14:26.492Z,15.45
2022-10-30T09:24:34.825Z,16.07
2022-10-30T09:29:38.976Z,16.35
2022-10-30T09:34:43.147Z,16.55
2022-10-30T09:39:47.299Z,16.79
2022-10-30T09:45:02.128Z,17.07
2022-10-30T09:49:55.576Z,17.20
2022-10-30T09:54:59.757Z,17.25
2022-10-30T10:00:03.947Z,17.38
2022-10-30T10:05:08.115Z,17.63
2022-10-30T10:10:12.322Z,17.83
2022-10-30T10:15:16.403Z,17.98
2022-10-30T10:20:20.585Z,18.12
2022-10-30T10:25:24.801Z,18.31
2022-10-30T10:30:28.870Z,18.55
2022-10-30T10:35:33.054Z,18.80
2022-10-30T10:40:37.221Z,19.00
2022-10-30T10:45:41.387Z,19.20
2022-10-30T10:50:45.522Z,19.57
2022-10-30T10:55:49.670Z,19.81
2022-10-30T11:00:53.841Z,20.01
2022-10-30T11:05:58.000Z,20.12
2022-10-30T11:11:02.148Z,20.28
2022-10-30T11:16:06.329Z,20.42
2022-10-30T11:21:10.473Z,20.62
2022-10-30T11:26:14.649Z,20.77
2022-10-30T11:31:18.762Z,20.91
2022-10-30T11:36:22.941Z,21.07
2022-10-30T11:41:27.321Z,21.16
2022-10-30T11:46:31.262Z,21.23
2022-10-30T11:51:35.548Z,21.31
2022-10-30T11:56:39.595Z,21.26
2022-10-30T12:01:41.917Z,21.30
2022-10-30T12:06:46.066Z,21.34
2022-10-30T12:11:50.156Z,21.36
2022-10-30T12:16:54.326Z,21.49
2022-10-30T12:21:58.503Z,21.62
2022-10-30T12:27:02.641Z,21.75
2022-10-30T12:32:06.829Z,21.80
2022-10-30T12:37:10.962Z,21.71
2022-10-30T12:42:15.092Z,21.62
2022-10-30T12:47:19.282Z,21.58
2022-10-30T12:52:23.450Z,21.57
2022-10-30T12:57:27.614Z,21.59
2022-10-30T13:02:31.808Z,21.67
2022-10-30T13:07:35.916Z,21.65
2022-10-30T13:12:40.076Z,21.59
2022-10-30T13:17:44.247Z,21.52
2022-10-30T13:22:48.393Z,21.63
2022-10-30T13:27:52.544Z,21.58
2022-10-30T13:38:01.193Z,21.59
2022-10-30T13:43:05.057Z,21.59
2022-10-30T13:48:09.204Z,21.62
2022-10-30T13:53:13.345Z,21.49
2022-10-30T13:58:17.510Z,21.43
2022-10-30T14:03:21.686Z,21.37
2022-10-30T14:08:25.876Z,21.29
2022-10-30T14:13:30.015Z,21.21
2022-10-30T14:18:34.263Z,21.15
2022-10-30T14:23:38.293Z,21.05
2022-10-30T14:28:42.479Z,20.94
2022-10-30T14:33:46.653Z,20.83
2022-10-30T14:38:50.776Z,20.76
2022-10-30T14:43:54.927Z,20.69
2022-10-30T14:48:59.086Z,20.49
2022-10-30T14:54:03.280Z,20.35
2022-10-30T14:59:07.393Z,20.18
2022-10-30T15:04:11.553Z,19.98
2022-10-30T15:09:15.757Z,19.88
2022-10-30T15:14:21.534Z,19.79
2022-10-30T15:19:24.026Z,19.43
2022-10-30T15:24:32.157Z,19.12
2022-10-30T15:29:32.399Z,18.88
2022-10-30T15:34:36.547Z,18.71
2022-10-30T15:39:40.668Z,18.53
2022-10-30T15:44:44.836Z,18.32
2022-10-30T15:49:49.028Z,18.14
2022-10-30T15:54:53.189Z,17.99
2022-10-30T15:59:57.306Z,17.90
2022-10-30T16:05:01.476Z,17.89
2022-10-30T16:10:05.649Z,17.84
2022-10-30T16:15:09.825Z,17.82
2022-10-30T16:20:13.939Z,17.86
2022-10-30T16:25:18.096Z,17.81
2022-10-30T16:30:22.269Z,17.53
2022-10-30T16:35:26.467Z,17.18
2022-10-30T16:40:30.575Z,16.77
2022-10-30T16:45:34.743Z,16.52
2022-10-30T16:50:38.916Z,16.39
2022-10-30T16:55:43.084Z,16.18
2022-10-30T17:00:47.292Z,16.02
2022-10-30T17:05:51.374Z,15.78
2022-10-30T17:10:55.564Z,15.57
2022-10-30T17:15:59.724Z,15.37
2022-10-30T17:21:03.901Z,15.31
2022-10-30T17:26:08.061Z,15.29
2022-10-30T17:31:10.329Z,15.33
2022-10-30T17:36:14.504Z,15.23
2022-10-30T17:41:18.617Z,15.18
2022-10-30T17:46:22.758Z,15.13
2022-10-30T17:51:26.920Z,15.05
2022-10-30T17:56:31.086Z,14.88
2022-10-30T18:01:35.370Z,14.67
2022-10-30T18:06:39.429Z,14.58
2022-10-30T18:11:43.590Z,14.68
2022-10-30T18:16:52.868Z,14.64
2022-10-30T18:21:51.928Z,14.70
2022-10-30T18:26:56.022Z,14.80
2022-10-30T18:32:03.227Z,14.80
2022-10-30T18:37:04.409Z,14.74
2022-10-30T18:42:08.514Z,14.67
2022-10-30T18:47:12.704Z,14.84
2022-10-30T18:52:16.834Z,14.93
2022-10-30T18:57:21.015Z,15.14
2022-10-30T19:02:25.255Z,15.28
2022-10-30T19:07:29.326Z,15.18
2022-10-30T19:12:38.426Z,15.03
2022-10-30T19:17:37.625Z,15.06
2022-10-30T19:22:41.789Z,15.10
2022-10-30T19:27:45.961Z,15.04
2022-10-30T19:32:50.141Z,14.96
2022-10-30T19:37:54.305Z,14.82
2022-10-30T19:42:58.894Z,14.69
2022-10-30T19:48:02.611Z,14.53
2022-10-30T19:53:06.976Z,14.41
2022-10-30T19:58:10.940Z,14.26
2022-10-30T20:03:15.086Z,14.15
2022-10-30T20:08:19.267Z,14.04
2022-10-30T20:13:23.420Z,13.99
2022-10-30T20:18:27.540Z,13.89
2022-10-30T20:23:31.730Z,13.74
2022-10-30T20:28:35.871Z,13.74
2022-10-30T20:33:40.042Z,13.74
2022-10-30T20:38:44.207Z,13.66
2022-10-30T20:43:48.381Z,13.61
2022-10-30T20:48:52.518Z,13.56
2022-10-30T20:53:56.716Z,13.49
2022-10-30T20:59:00.829Z,13.43
2022-10-30T21:04:05.038Z,13.35
2022-10-30T21:09:09.198Z,13.22
2022-10-30T21:14:13.378Z,13.21
2022-10-30T21:19:17.543Z,13.28
2022-10-30T21:24:21.642Z,13.25
2022-10-30T21:29:25.980Z,13.14
2022-10-30T21:34:30.010Z,13.03
2022-10-30T21:39:34.100Z,12.85
2022-10-30T21:44:38.271Z,12.76
2022-10-30T21:49:42.460Z,12.67
2022-10-30T21:54:46.613Z,12.52
2022-10-30T21:59:50.797Z,12.43
2022-10-30T22:04:56.934Z,12.29
2022-10-30T22:09:59.079Z,12.20
2022-10-30T22:15:03.257Z,12.13
2022-10-30T22:20:07.385Z,12.09
2022-10-30T22:25:11.576Z,12.12
2022-10-30T22:30:15.743Z,12.06
2022-10-30T22:35:19.935Z,12.05
2022-10-30T22:40:24.089Z,12.00
2022-10-30T22:45:28.227Z,11.99
2022-10-30T22:50:32.392Z,11.95
2022-10-30T22:55:36.533Z,11.99
2022-10-30T23:00:38.775Z,11.93
2022-10-30T23:05:42.988Z,11.94
2022-10-30T23:10:47.132Z,12.01
2022-10-30T23:15:51.326Z,12.08
2022-10-30T23:20:55.427Z,12.15
2022-10-30T23:25:59.617Z,12.19
2022-10-30T23:31:01.882Z,12.16
2022-10-30T23:36:06.050Z,12.22
2022-10-30T23:41:10.195Z,12.27
2022-10-30T23:46:14.357Z,12.29
2022-10-30T23:51:18.541Z,12.33
2022-10-30T23:56:22.700Z,12.42
